sensor_id;sensor_type;location;lat;lon;timestamp;pressure;altitude;pressure_sealevel;temperature;humidity
50349;BME280;36250;48.740;22.174;2023-06-14T00:01:35;100237.13;;;14.71;86.48
50349;BME280;36250;48.740;22.174;2023-06-14T00:04:01;100231.66;;;14.66;86.39
50349;BME280;36250;48.740;22.174;2023-06-14T00:06:28;100243.16;;;14.58;86.23
50349;BME280;36250;48.740;22.174;2023-06-14T00:08:53;100230.84;;;14.51;86.38
50349;BME280;36250;48.740;22.174;2023-06-14T00:11:19;100244.53;;;14.45;86.42
50349;BME280;36250;48.740;22.174;2023-06-14T00:13:45;100235.78;;;14.38;86.87
50349;BME280;36250;48.740;22.174;2023-06-14T00:16:10;100228.94;;;14.36;87.11
50349;BME280;36250;48.740;22.174;2023-06-14T00:18:36;100229.47;;;14.33;87.45
50349;BME280;36250;48.740;22.174;2023-06-14T00:21:02;100226.72;;;14.28;87.13
50349;BME280;36250;48.740;22.174;2023-06-14T00:23:27;100235.75;;;14.23;87.54
50349;BME280;36250;48.740;22.174;2023-06-14T00:25:52;100228.88;;;14.16;87.88
50349;BME280;36250;48.740;22.174;2023-06-14T00:28:18;100224.81;;;14.13;87.96
50349;BME280;36250;48.740;22.174;2023-06-14T00:30:43;100221.50;;;14.11;88.11
50349;BME280;36250;48.740;22.174;2023-06-14T00:33:11;100226.72;;;14.08;88.59
50349;BME280;36250;48.740;22.174;2023-06-14T00:35:36;100218.50;;;14.03;88.22
50349;BME280;36250;48.740;22.174;2023-06-14T00:38:02;100222.06;;;13.98;88.71
50349;BME280;36250;48.740;22.174;2023-06-14T00:40:27;100225.03;;;13.97;88.37
50349;BME280;36250;48.740;22.174;2023-06-14T00:42:52;100233.53;;;13.90;88.49
50349;BME280;36250;48.740;22.174;2023-06-14T00:45:18;100231.63;;;13.91;88.43
50349;BME280;36250;48.740;22.174;2023-06-14T00:47:45;100231.06;;;13.89;88.76
50349;BME280;36250;48.740;22.174;2023-06-14T00:50:11;100226.16;;;13.91;88.86
50349;BME280;36250;48.740;22.174;2023-06-14T00:52:37;100234.06;;;13.92;89.07
50349;BME280;36250;48.740;22.174;2023-06-14T00:55:03;100223.41;;;13.96;89.20
50349;BME280;36250;48.740;22.174;2023-06-14T00:57:29;100224.78;;;13.98;89.01
50349;BME280;36250;48.740;22.174;2023-06-14T00:59:54;100222.31;;;13.97;88.72
50349;BME280;36250;48.740;22.174;2023-06-14T01:02:21;100229.72;;;13.96;88.82
50349;BME280;36250;48.740;22.174;2023-06-14T01:04:47;100221.22;;;13.93;88.81
50349;BME280;36250;48.740;22.174;2023-06-14T01:07:22;100223.66;;;13.94;88.80
50349;BME280;36250;48.740;22.174;2023-06-14T01:12:41;100211.09;;;13.98;88.84
50349;BME280;36250;48.740;22.174;2023-06-14T01:15:10;100223.97;;;13.98;88.69
50349;BME280;36250;48.740;22.174;2023-06-14T01:17:37;100221.22;;;13.98;88.51
50349;BME280;36250;48.740;22.174;2023-06-14T01:20:12;100223.44;;;14.01;88.89
50349;BME280;36250;48.740;22.174;2023-06-14T01:22:59;100219.56;;;14.02;88.47
50349;BME280;36250;48.740;22.174;2023-06-14T01:25:24;100215.22;;;14.01;88.56
50349;BME280;36250;48.740;22.174;2023-06-14T01:27:52;100216.31;;;14.05;88.73
50349;BME280;36250;48.740;22.174;2023-06-14T01:30:20;100216.59;;;14.08;88.54
50349;BME280;36250;48.740;22.174;2023-06-14T01:32:47;100216.84;;;14.12;88.75
50349;BME280;36250;48.740;22.174;2023-06-14T01:35:12;100221.25;;;14.18;88.69
50349;BME280;36250;48.740;22.174;2023-06-14T01:37:39;100215.19;;;14.21;88.38
50349;BME280;36250;48.740;22.174;2023-06-14T01:40:06;100207.28;;;14.19;88.27
50349;BME280;36250;48.740;22.174;2023-06-14T01:42:35;100219.06;;;14.20;88.37
50349;BME280;36250;48.740;22.174;2023-06-14T01:45:02;100218.78;;;14.21;88.19
50349;BME280;36250;48.740;22.174;2023-06-14T01:47:30;100221.25;;;14.23;87.80
50349;BME280;36250;48.740;22.174;2023-06-14T01:49:55;100220.69;;;14.21;87.81
50349;BME280;36250;48.740;22.174;2023-06-14T01:52:20;100214.13;;;14.17;87.91
50349;BME280;36250;48.740;22.174;2023-06-14T01:54:47;100222.88;;;14.14;87.77
50349;BME280;36250;48.740;22.174;2023-06-14T01:57:12;100219.59;;;14.12;87.85
50349;BME280;36250;48.740;22.174;2023-06-14T01:59:38;100211.91;;;14.09;87.80
50349;BME280;36250;48.740;22.174;2023-06-14T02:02:03;100217.97;;;14.06;88.09
50349;BME280;36250;48.740;22.174;2023-06-14T02:04:29;100218.50;;;14.03;88.22
50349;BME280;36250;48.740;22.174;2023-06-14T02:06:54;100225.06;;;14.02;88.57
50349;BME280;36250;48.740;22.174;2023-06-14T02:09:19;100216.84;;;14.02;88.67
50349;BME280;36250;48.740;22.174;2023-06-14T02:11:45;100222.84;;;13.99;88.91
50349;BME280;36250;48.740;22.174;2023-06-14T02:14:10;100224.50;;;14.00;88.86
50349;BME280;36250;48.740;22.174;2023-06-14T02:16:37;100231.06;;;13.99;88.61
50349;BME280;36250;48.740;22.174;2023-06-14T02:19:04;100228.06;;;13.95;88.88
50349;BME280;36250;48.740;22.174;2023-06-14T02:21:29;100231.63;;;13.91;88.95
50349;BME280;36250;48.740;22.174;2023-06-14T02:23:55;100235.41;;;13.84;88.54
50349;BME280;36250;48.740;22.174;2023-06-14T02:26:21;100234.34;;;13.80;88.94
50349;BME280;36250;48.740;22.174;2023-06-14T02:28:47;100234.31;;;13.75;88.63
50349;BME280;36250;48.740;22.174;2023-06-14T02:31:13;100237.34;;;13.74;88.87
50349;BME280;36250;48.740;22.174;2023-06-14T02:33:38;100235.69;;;13.73;88.86
50349;BME280;36250;48.740;22.174;2023-06-14T02:36:04;100241.44;;;13.76;89.21
50349;BME280;36250;48.740;22.174;2023-06-14T02:38:29;100234.88;;;13.77;88.92
50349;BME280;36250;48.740;22.174;2023-06-14T02:40:54;100240.88;;;13.79;89.24
50349;BME280;36250;48.740;22.174;2023-06-14T02:43:20;100249.94;;;13.85;89.18
50349;BME280;36250;48.740;22.174;2023-06-14T02:45:45;100241.44;;;13.87;89.20
50349;BME280;36250;48.740;22.174;2023-06-14T02:48:10;100239.00;;;13.90;89.03
50349;BME280;36250;48.740;22.174;2023-06-14T02:50:36;100245.00;;;13.92;88.88
50349;BME280;36250;48.740;22.174;2023-06-14T02:53:01;100240.66;;;13.96;88.71
50349;BME280;36250;48.740;22.174;2023-06-14T02:55:28;100242.00;;;13.99;88.78
50349;BME280;36250;48.740;22.174;2023-06-14T02:57:53;100244.50;;;14.00;88.46
50349;BME280;36250;48.740;22.174;2023-06-14T03:00:19;100248.88;;;13.96;88.15
50349;BME280;36250;48.740;22.174;2023-06-14T03:02:44;100251.28;;;13.82;88.39
50349;BME280;36250;48.740;22.174;2023-06-14T03:05:11;100254.00;;;13.77;88.69
50349;BME280;36250;48.740;22.174;2023-06-14T03:07:36;100259.47;;;13.72;88.74
50349;BME280;36250;48.740;22.174;2023-06-14T03:10:09;100260.03;;;13.74;88.98
50349;BME280;36250;48.740;22.174;2023-06-14T03:12:35;100259.50;;;13.77;88.89
50349;BME280;36250;48.740;22.174;2023-06-14T03:15:02;100268.25;;;13.79;88.59
50349;BME280;36250;48.740;22.174;2023-06-14T03:17:27;100268.78;;;13.71;88.68
50349;BME280;36250;48.740;22.174;2023-06-14T03:19:55;100273.69;;;13.69;88.98
50349;BME280;36250;48.740;22.174;2023-06-14T03:22:20;100265.75;;;13.68;89.07
50349;BME280;36250;48.740;22.174;2023-06-14T03:24:47;100272.06;;;13.68;89.06
50349;BME280;36250;48.740;22.174;2023-06-14T03:27:13;100268.22;;;13.69;88.91
50349;BME280;36250;48.740;22.174;2023-06-14T03:29:39;100276.69;;;13.68;88.98
50349;BME280;36250;48.740;22.174;2023-06-14T03:32:05;100270.41;;;13.67;89.24
50349;BME280;36250;48.740;22.174;2023-06-14T03:34:30;100272.31;;;13.72;89.40
50349;BME280;36250;48.740;22.174;2023-06-14T03:36:56;100267.44;;;13.79;89.41
50349;BME280;36250;48.740;22.174;2023-06-14T03:39:21;100275.09;;;13.87;89.14
50349;BME280;36250;48.740;22.174;2023-06-14T03:41:47;100276.50;;;13.95;89.21
50349;BME280;36250;48.740;22.174;2023-06-14T03:44:15;100286.38;;;14.01;89.28
50349;BME280;36250;48.740;22.174;2023-06-14T03:46:41;100280.63;;;14.07;89.51
50349;BME280;36250;48.740;22.174;2023-06-14T03:49:06;100281.47;;;14.13;88.92
50349;BME280;36250;48.740;22.174;2023-06-14T03:51:32;100283.09;;;14.19;88.88
50349;BME280;36250;48.740;22.174;2023-06-14T03:54:00;100289.94;;;14.21;88.83
50349;BME280;36250;48.740;22.174;2023-06-14T03:56:26;100286.41;;;14.26;88.70
50349;BME280;36250;48.740;22.174;2023-06-14T03:58:52;100287.50;;;14.30;88.24
50349;BME280;36250;48.740;22.174;2023-06-14T04:01:17;100287.50;;;14.25;88.21
50349;BME280;36250;48.740;22.174;2023-06-14T04:03:42;100283.94;;;14.19;88.03
50349;BME280;36250;48.740;22.174;2023-06-14T04:06:08;100287.22;;;14.16;88.67
50349;BME280;36250;48.740;22.174;2023-06-14T04:08:34;100295.72;;;14.20;88.26
50349;BME280;36250;48.740;22.174;2023-06-14T04:11:00;100293.53;;;14.22;88.42
50349;BME280;36250;48.740;22.174;2023-06-14T04:13:25;100294.91;;;14.29;88.34
50349;BME280;36250;48.740;22.174;2023-06-14T04:15:51;100294.09;;;14.34;88.10
50349;BME280;36250;48.740;22.174;2023-06-14T04:18:16;100294.94;;;14.39;88.01
50349;BME280;36250;48.740;22.174;2023-06-14T04:20:43;100300.97;;;14.46;88.04
50349;BME280;36250;48.740;22.174;2023-06-14T04:23:13;100296.03;;;14.54;87.92
50349;BME280;36250;48.740;22.174;2023-06-14T04:25:38;100297.41;;;14.61;88.10
50349;BME280;36250;48.740;22.174;2023-06-14T04:28:05;100299.31;;;14.71;87.89
50349;BME280;36250;48.740;22.174;2023-06-14T04:30:30;100294.66;;;14.76;87.62
50349;BME280;36250;48.740;22.174;2023-06-14T04:32:56;100298.78;;;14.84;87.05
50349;BME280;36250;48.740;22.174;2023-06-14T04:35:22;100294.09;;;14.89;87.00
50349;BME280;36250;48.740;22.174;2023-06-14T04:37:49;100296.81;;;14.99;86.90
50349;BME280;36250;48.740;22.174;2023-06-14T04:40:14;100296.81;;;15.04;86.38
50349;BME280;36250;48.740;22.174;2023-06-14T04:42:40;100293.53;;;15.02;85.45
50349;BME280;36250;48.740;22.174;2023-06-14T04:45:06;100293.53;;;15.02;85.55
50349;BME280;36250;48.740;22.174;2023-06-14T04:47:32;100292.13;;;15.15;85.51
50349;BME280;36250;48.740;22.174;2023-06-14T04:49:59;100296.78;;;15.25;85.40
50349;BME280;36250;48.740;22.174;2023-06-14T04:52:25;100296.78;;;15.25;84.81
50349;BME280;36250;48.740;22.174;2023-06-14T04:54:52;100300.03;;;15.27;85.14
50349;BME280;36250;48.740;22.174;2023-06-14T04:57:19;100305.81;;;15.30;85.19
50349;BME280;36250;48.740;22.174;2023-06-14T04:59:47;100295.91;;;15.34;84.82
50349;BME280;36250;48.740;22.174;2023-06-14T05:02:12;100296.19;;;15.38;85.02
50349;BME280;36250;48.740;22.174;2023-06-14T05:04:38;100300.03;;;15.37;84.73
50349;BME280;36250;48.740;22.174;2023-06-14T05:07:06;100300.84;;;15.37;85.19
50349;BME280;36250;48.740;22.174;2023-06-14T05:09:32;100304.13;;;15.39;85.26
50349;BME280;36250;48.740;22.174;2023-06-14T05:11:58;100298.91;;;15.43;85.22
50349;BME280;36250;48.740;22.174;2023-06-14T05:14:25;100298.34;;;15.41;84.99
50349;BME280;36250;48.740;22.174;2023-06-14T05:16:50;100301.09;;;15.41;85.34
50349;BME280;36250;48.740;22.174;2023-06-14T05:19:16;100305.50;;;15.47;85.37
50349;BME280;36250;48.740;22.174;2023-06-14T05:21:43;100307.69;;;15.55;85.28
50349;BME280;36250;48.740;22.174;2023-06-14T05:24:08;100309.31;;;15.56;85.03
50349;BME280;36250;48.740;22.174;2023-06-14T05:26:34;100319.69;;;15.69;85.03
50349;BME280;36250;48.740;22.174;2023-06-14T05:29:00;100313.56;;;15.82;84.78
50349;BME280;36250;48.740;22.174;2023-06-14T05:31:27;100313.81;;;15.91;84.11
50349;BME280;36250;48.740;22.174;2023-06-14T05:33:53;100306.63;;;16.00;83.80
50349;BME280;36250;48.740;22.174;2023-06-14T05:36:19;100305.75;;;16.09;83.39
50349;BME280;36250;48.740;22.174;2023-06-14T05:38:46;100309.56;;;16.18;82.52
50349;BME280;36250;48.740;22.174;2023-06-14T05:41:12;100310.31;;;16.24;82.44
50349;BME280;36250;48.740;22.174;2023-06-14T05:43:37;100317.97;;;16.32;82.51
50349;BME280;36250;48.740;22.174;2023-06-14T05:46:03;100316.50;;;16.44;82.18
50349;BME280;36250;48.740;22.174;2023-06-14T05:48:29;100316.63;;;16.68;81.74
50349;BME280;36250;48.740;22.174;2023-06-14T05:50:55;100308.16;;;16.93;81.06
50349;BME280;36250;48.740;22.174;2023-06-14T05:53:20;100314.56;;;17.13;79.72
50349;BME280;36250;48.740;22.174;2023-06-14T05:55:45;100314.63;;;17.31;78.63
50349;BME280;36250;48.740;22.174;2023-06-14T05:58:11;100318.28;;;17.50;78.28
50349;BME280;36250;48.740;22.174;2023-06-14T06:00:38;100316.53;;;17.83;77.47
50349;BME280;36250;48.740;22.174;2023-06-14T06:03:04;100324.69;;;18.12;75.77
50349;BME280;36250;48.740;22.174;2023-06-14T06:05:30;100314.09;;;18.37;74.15
50349;BME280;36250;48.740;22.174;2023-06-14T06:07:55;100319.63;;;18.56;72.93
50349;BME280;36250;48.740;22.174;2023-06-14T06:10:21;100325.28;;;18.65;72.63
50349;BME280;36250;48.740;22.174;2023-06-14T06:12:46;100320.28;;;18.67;72.13
50349;BME280;36250;48.740;22.174;2023-06-14T06:15:13;100324.97;;;18.66;71.74
50349;BME280;36250;48.740;22.174;2023-06-14T06:17:39;100326.78;;;18.57;70.23
50349;BME280;36250;48.740;22.174;2023-06-14T06:20:05;100321.03;;;18.54;71.71
50349;BME280;36250;48.740;22.174;2023-06-14T06:22:36;100326.97;;;18.79;70.31
50349;BME280;36250;48.740;22.174;2023-06-14T06:25:01;100324.41;;;19.01;69.06
50349;BME280;36250;48.740;22.174;2023-06-14T06:27:27;100321.44;;;19.12;68.04
50349;BME280;36250;48.740;22.174;2023-06-14T06:29:52;100333.91;;;19.09;67.11
50349;BME280;36250;48.740;22.174;2023-06-14T06:32:18;100331.84;;;19.01;67.25
50349;BME280;36250;48.740;22.174;2023-06-14T06:34:43;100331.28;;;18.85;65.54
50349;BME280;36250;48.740;22.174;2023-06-14T06:37:09;100329.66;;;18.66;66.24
50349;BME280;36250;48.740;22.174;2023-06-14T06:39:34;100329.16;;;18.45;67.48
50349;BME280;36250;48.740;22.174;2023-06-14T06:42:00;100324.19;;;18.47;67.81
50349;BME280;36250;48.740;22.174;2023-06-14T06:44:25;100339.47;;;18.58;67.60
50349;BME280;36250;48.740;22.174;2023-06-14T06:46:50;100331.16;;;18.77;66.90
50349;BME280;36250;48.740;22.174;2023-06-14T06:49:16;100344.13;;;18.76;65.53
50349;BME280;36250;48.740;22.174;2023-06-14T06:51:41;100342.16;;;18.63;66.55
50349;BME280;36250;48.740;22.174;2023-06-14T06:54:08;100347.41;;;18.78;66.82
50349;BME280;36250;48.740;22.174;2023-06-14T06:56:34;100345.53;;;18.92;66.41
50349;BME280;36250;48.740;22.174;2023-06-14T06:58:59;100357.00;;;18.99;66.83
50349;BME280;36250;48.740;22.174;2023-06-14T07:01:25;100360.47;;;19.05;67.24
50349;BME280;36250;48.740;22.174;2023-06-14T07:03:51;100358.75;;;19.09;66.70
50349;BME280;36250;48.740;22.174;2023-06-14T07:06:17;100365.69;;;19.07;66.03
50349;BME280;36250;48.740;22.174;2023-06-14T07:08:44;100369.81;;;18.90;65.72
50349;BME280;36250;48.740;22.174;2023-06-14T07:11:09;100369.97;;;18.99;66.54
50349;BME280;36250;48.740;22.174;2023-06-14T07:13:35;100369.03;;;19.03;66.80
50349;BME280;36250;48.740;22.174;2023-06-14T07:16:01;100361.97;;;18.97;66.72
50349;BME280;36250;48.740;22.174;2023-06-14T07:18:27;100369.53;;;18.73;66.44
50349;BME280;36250;48.740;22.174;2023-06-14T07:20:53;100368.66;;;18.59;65.71
50349;BME280;36250;48.740;22.174;2023-06-14T07:23:19;100368.34;;;18.42;67.59
50349;BME280;36250;48.740;22.174;2023-06-14T07:25:45;100365.06;;;18.40;68.68
50349;BME280;36250;48.740;22.174;2023-06-14T07:28:10;100369.00;;;18.34;69.84
50349;BME280;36250;48.740;22.174;2023-06-14T07:30:36;100372.44;;;18.45;70.83
50349;BME280;36250;48.740;22.174;2023-06-14T07:33:01;100370.81;;;18.62;68.30
50349;BME280;36250;48.740;22.174;2023-06-14T07:35:26;100372.84;;;18.75;66.63
50349;BME280;36250;48.740;22.174;2023-06-14T07:37:52;100373.72;;;18.89;66.44
50349;BME280;36250;48.740;22.174;2023-06-14T07:40:17;100375.75;;;18.97;65.99
50349;BME280;36250;48.740;22.174;2023-06-14T07:42:43;100378.25;;;19.13;66.28
50349;BME280;36250;48.740;22.174;2023-06-14T07:45:08;100379.31;;;19.17;66.31
50349;BME280;36250;48.740;22.174;2023-06-14T07:47:34;100384.66;;;19.27;64.46
50349;BME280;36250;48.740;22.174;2023-06-14T07:49:59;100380.06;;;19.36;65.19
50349;BME280;36250;48.740;22.174;2023-06-14T07:52:25;100385.94;;;19.48;64.86
50349;BME280;36250;48.740;22.174;2023-06-14T07:54:50;100387.59;;;19.62;64.32
50349;BME280;36250;48.740;22.174;2023-06-14T07:57:16;100383.91;;;19.53;62.51
50349;BME280;36250;48.740;22.174;2023-06-14T07:59:41;100388.94;;;19.65;63.68
50349;BME280;36250;48.740;22.174;2023-06-14T08:02:06;100381.72;;;19.37;64.15
50349;BME280;36250;48.740;22.174;2023-06-14T08:04:32;100384.44;;;19.23;64.87
50349;BME280;36250;48.740;22.174;2023-06-14T08:06:59;100382.50;;;19.24;65.66
50349;BME280;36250;48.740;22.174;2023-06-14T08:09:25;100376.75;;;19.39;65.04
50349;BME280;36250;48.740;22.174;2023-06-14T08:11:50;100383.19;;;19.61;63.97
50349;BME280;36250;48.740;22.174;2023-06-14T08:14:16;100384.03;;;19.89;62.47
50349;BME280;36250;48.740;22.174;2023-06-14T08:16:41;100388.22;;;20.00;62.24
50349;BME280;36250;48.740;22.174;2023-06-14T08:19:07;100382.78;;;20.09;60.53
50349;BME280;36250;48.740;22.174;2023-06-14T08:21:32;100383.09;;;20.35;60.46
50349;BME280;36250;48.740;22.174;2023-06-14T08:23:58;100380.19;;;20.40;58.26
50349;BME280;36250;48.740;22.174;2023-06-14T08:26:24;100376.22;;;20.46;58.90
50349;BME280;36250;48.740;22.174;2023-06-14T08:28:54;100380.09;;;20.45;60.14
50349;BME280;36250;48.740;22.174;2023-06-14T08:31:20;100373.06;;;20.39;59.39
50349;BME280;36250;48.740;22.174;2023-06-14T08:33:45;100387.28;;;20.46;60.00
50349;BME280;36250;48.740;22.174;2023-06-14T08:36:11;100388.09;;;20.46;61.36
50349;BME280;36250;48.740;22.174;2023-06-14T08:38:37;100386.56;;;20.40;59.92
50349;BME280;36250;48.740;22.174;2023-06-14T08:41:05;100384.53;;;20.32;59.51
50349;BME280;36250;48.740;22.174;2023-06-14T08:43:31;100388.88;;;20.24;59.86
50349;BME280;36250;48.740;22.174;2023-06-14T08:45:58;100396.50;;;20.27;60.13
50349;BME280;36250;48.740;22.174;2023-06-14T08:48:26;100398.13;;;20.42;58.50
50349;BME280;36250;48.740;22.174;2023-06-14T08:50:54;100394.94;;;20.49;56.96
50349;BME280;36250;48.740;22.174;2023-06-14T08:53:30;100398.94;;;20.56;57.14
50349;BME280;36250;48.740;22.174;2023-06-14T08:55:58;100396.81;;;20.75;56.65
50349;BME280;36250;48.740;22.174;2023-06-14T08:58:25;100397.16;;;21.18;56.73
50349;BME280;36250;48.740;22.174;2023-06-14T09:00:51;100395.56;;;21.48;56.50
50349;BME280;36250;48.740;22.174;2023-06-14T09:03:18;100403.88;;;21.79;55.70
50349;BME280;36250;48.740;22.174;2023-06-14T09:05:45;100403.66;;;22.06;55.36
50349;BME280;36250;48.740;22.174;2023-06-14T09:08:11;100401.75;;;22.23;54.12
50349;BME280;36250;48.740;22.174;2023-06-14T09:10:36;100407.44;;;22.10;54.04
50349;BME280;36250;48.740;22.174;2023-06-14T09:13:03;100415.06;;;21.96;54.70
50349;BME280;36250;48.740;22.174;2023-06-14T09:15:30;100417.63;;;21.92;54.48
50349;BME280;36250;48.740;22.174;2023-06-14T09:17:55;100410.50;;;22.08;53.97
50349;BME280;36250;48.740;22.174;2023-06-14T09:20:21;100415.13;;;22.21;56.08
50349;BME280;36250;48.740;22.174;2023-06-14T09:22:48;100415.31;;;22.34;53.42
50349;BME280;36250;48.740;22.174;2023-06-14T09:25:14;100415.81;;;22.27;53.26
50349;BME280;36250;48.740;22.174;2023-06-14T09:27:43;100417.34;;;21.72;52.04
50349;BME280;36250;48.740;22.174;2023-06-14T09:30:10;100410.53;;;21.78;54.47
50349;BME280;36250;48.740;22.174;2023-06-14T09:32:37;100411.47;;;22.04;51.72
50349;BME280;36250;48.740;22.174;2023-06-14T09:35:04;100414.66;;;22.28;52.04
50349;BME280;36250;48.740;22.174;2023-06-14T09:37:31;100414.44;;;22.64;49.90
50349;BME280;36250;48.740;22.174;2023-06-14T09:39:57;100407.41;;;22.92;48.45
50349;BME280;36250;48.740;22.174;2023-06-14T09:42:23;100401.69;;;22.97;50.94
50349;BME280;36250;48.740;22.174;2023-06-14T09:44:52;100399.53;;;23.11;47.61
50349;BME280;36250;48.740;22.174;2023-06-14T09:47:18;100402.00;;;23.04;46.63
50349;BME280;36250;48.740;22.174;2023-06-14T09:49:44;100405.25;;;23.32;47.90
50349;BME280;36250;48.740;22.174;2023-06-14T09:52:19;100408.41;;;23.77;48.73
50349;BME280;36250;48.740;22.174;2023-06-14T09:54:46;100396.88;;;23.95;46.93
50349;BME280;36250;48.740;22.174;2023-06-14T09:57:17;100406.91;;;24.26;47.40
50349;BME280;36250;48.740;22.174;2023-06-14T09:59:46;100390.78;;;24.40;46.43
50349;BME280;36250;48.740;22.174;2023-06-14T10:04:46;100396.34;;;24.02;46.33
50349;BME280;36250;48.740;22.174;2023-06-14T10:07:19;100402.28;;;23.45;45.75
50349;BME280;36250;48.740;22.174;2023-06-14T10:09:46;100400.84;;;23.39;48.83
50349;BME280;36250;48.740;22.174;2023-06-14T10:12:16;100394.44;;;23.47;46.25
50349;BME280;36250;48.740;22.174;2023-06-14T10:14:49;100395.06;;;23.53;47.47
50349;BME280;36250;48.740;22.174;2023-06-14T10:17:40;100402.69;;;23.73;47.29
50349;BME280;36250;48.740;22.174;2023-06-14T10:20:58;100400.47;;;23.58;47.70
50349;BME280;36250;48.740;22.174;2023-06-14T10:23:22;100402.94;;;23.51;46.82
50349;BME280;36250;48.740;22.174;2023-06-14T10:25:58;100398.03;;;23.57;47.48
50349;BME280;36250;48.740;22.174;2023-06-14T10:28:25;100403.47;;;23.82;46.30
50349;BME280;36250;48.740;22.174;2023-06-14T10:31:11;100394.94;;;23.87;45.74
50349;BME280;36250;48.740;22.174;2023-06-14T10:39:06;100401.84;;;23.81;43.81
50349;BME280;36250;48.740;22.174;2023-06-14T10:41:39;100398.72;;;23.45;47.27
50349;BME280;36250;48.740;22.174;2023-06-14T10:46:53;100403.41;;;23.99;46.59
50349;BME280;36250;48.740;22.174;2023-06-14T10:49:19;100395.06;;;23.99;44.19
50349;BME280;36250;48.740;22.174;2023-06-14T10:51:49;100393.66;;;23.85;45.59
50349;BME280;36250;48.740;22.174;2023-06-14T10:54:16;100399.16;;;23.56;43.85
50349;BME280;36250;48.740;22.174;2023-06-14T10:59:15;100392.88;;;24.13;45.24
50349;BME280;36250;48.740;22.174;2023-06-14T11:04:49;100397.50;;;23.63;47.19
50349;BME280;36250;48.740;22.174;2023-06-14T11:12:27;100399.72;;;23.15;45.22
50349;BME280;36250;48.740;22.174;2023-06-14T11:14:53;100386.31;;;23.17;47.08
50349;BME280;36250;48.740;22.174;2023-06-14T11:17:18;100387.28;;;23.21;45.18
50349;BME280;36250;48.740;22.174;2023-06-14T11:19:44;100393.81;;;23.25;44.91
50349;BME280;36250;48.740;22.174;2023-06-14T11:22:09;100384.66;;;23.24;45.96
50349;BME280;36250;48.740;22.174;2023-06-14T11:24:35;100376.03;;;23.09;47.23
50349;BME280;36250;48.740;22.174;2023-06-14T11:27:00;100378.25;;;23.49;46.35
50349;BME280;36250;48.740;22.174;2023-06-14T11:29:25;100381.41;;;23.77;45.12
50349;BME280;36250;48.740;22.174;2023-06-14T11:31:53;100377.03;;;23.76;45.72
50349;BME280;36250;48.740;22.174;2023-06-14T11:34:19;100372.66;;;23.67;42.86
50349;BME280;36250;48.740;22.174;2023-06-14T11:36:45;100375.28;;;23.92;43.76
50349;BME280;36250;48.740;22.174;2023-06-14T11:39:11;100375.53;;;24.16;43.04
50349;BME280;36250;48.740;22.174;2023-06-14T11:41:38;100374.63;;;23.95;41.16
50349;BME280;36250;48.740;22.174;2023-06-14T11:44:04;100369.97;;;23.79;44.10
50349;BME280;36250;48.740;22.174;2023-06-14T11:46:29;100359.88;;;24.33;44.10
50349;BME280;36250;48.740;22.174;2023-06-14T11:48:55;100361.44;;;24.63;42.92
50349;BME280;36250;48.740;22.174;2023-06-14T11:51:20;100364.88;;;24.89;42.03
50349;BME280;36250;48.740;22.174;2023-06-14T11:53:46;100362.25;;;24.63;40.72
50349;BME280;36250;48.740;22.174;2023-06-14T11:56:12;100362.16;;;24.31;42.97
50349;BME280;36250;48.740;22.174;2023-06-14T11:58:37;100367.03;;;24.42;44.62
50349;BME280;36250;48.740;22.174;2023-06-14T12:01:03;100372.81;;;24.29;42.20
50349;BME280;36250;48.740;22.174;2023-06-14T12:03:29;100370.19;;;24.03;42.72
50349;BME280;36250;48.740;22.174;2023-06-14T12:06:08;100368.56;;;23.64;42.92
50349;BME280;36250;48.740;22.174;2023-06-14T12:08:37;100365.91;;;23.68;42.78
50349;BME280;36250;48.740;22.174;2023-06-14T12:11:13;100366.66;;;23.85;41.65
50349;BME280;36250;48.740;22.174;2023-06-14T12:13:41;100355.44;;;23.73;41.47
50349;BME280;36250;48.740;22.174;2023-06-14T12:16:11;100360.91;;;23.90;42.83
50349;BME280;36250;48.740;22.174;2023-06-14T12:18:38;100347.97;;;24.24;41.88
50349;BME280;36250;48.740;22.174;2023-06-14T12:21:08;100345.00;;;24.70;41.96
50349;BME280;36250;48.740;22.174;2023-06-14T12:23:48;100344.38;;;25.06;41.18
50349;BME280;36250;48.740;22.174;2023-06-14T12:26:19;100339.25;;;25.28;40.63
50349;BME280;36250;48.740;22.174;2023-06-14T12:28:46;100338.03;;;25.62;39.73
50349;BME280;36250;48.740;22.174;2023-06-14T12:31:12;100333.38;;;26.02;40.01
50349;BME280;36250;48.740;22.174;2023-06-14T12:33:39;100337.31;;;26.38;38.81
50349;BME280;36250;48.740;22.174;2023-06-14T12:36:07;100332.47;;;25.62;38.21
50349;BME280;36250;48.740;22.174;2023-06-14T12:38:33;100334.59;;;25.32;40.79
50349;BME280;36250;48.740;22.174;2023-06-14T12:40:58;100336.31;;;25.58;39.07
50349;BME280;36250;48.740;22.174;2023-06-14T12:43:24;100324.78;;;25.71;40.04
50349;BME280;36250;48.740;22.174;2023-06-14T12:45:49;100321.75;;;26.00;40.38
50349;BME280;36250;48.740;22.174;2023-06-14T12:48:15;100334.56;;;26.26;40.16
50349;BME280;36250;48.740;22.174;2023-06-14T12:50:41;100327.81;;;26.66;39.78
50349;BME280;36250;48.740;22.174;2023-06-14T12:53:06;100319.34;;;26.63;37.67
50349;BME280;36250;48.740;22.174;2023-06-14T12:55:32;100325.56;;;26.44;36.78
50349;BME280;36250;48.740;22.174;2023-06-14T12:57:57;100320.47;;;26.10;37.48
50349;BME280;36250;48.740;22.174;2023-06-14T13:00:23;100315.38;;;26.12;38.14
50349;BME280;36250;48.740;22.174;2023-06-14T13:02:50;100322.50;;;26.49;37.62